createdAt,value
2018-05-26T00:00:08.892Z,97657
2018-05-26T00:02:49.205Z,97651
2018-05-26T00:05:29.679Z,97667
2018-05-26T00:08:10.977Z,97664
2018-05-26T00:10:51.304Z,97663
2018-05-26T00:13:31.642Z,97661
2018-05-26T00:16:12.804Z,97667
2018-05-26T00:18:53.099Z,97665
2018-05-26T00:21:34.323Z,97668
2018-05-26T00:24:14.773Z,97669
2018-05-26T00:26:55.186Z,97673
2018-05-26T00:29:35.996Z,97674
2018-05-26T00:32:16.343Z,97673
2018-05-26T00:34:56.708Z,97668
2018-05-26T00:37:37.917Z,97669
2018-05-26T00:40:18.222Z,97675
2018-05-26T00:42:59.236Z,97676
2018-05-26T00:45:40.384Z,97683
2018-05-26T00:48:20.752Z,97679
2018-05-26T00:51:01.084Z,97686
2018-05-26T00:53:41.492Z,97686
2018-05-26T00:56:21.689Z,97675
2018-05-26T00:59:02.132Z,97682
2018-05-26T01:01:45.629Z,97683
2018-05-26T01:04:26.005Z,97684
2018-05-26T01:07:07.513Z,97683
2018-05-26T01:09:47.976Z,97688
2018-05-26T01:12:28.450Z,97692
2018-05-26T01:15:08.813Z,97691
2018-05-26T01:17:49.228Z,97689
2018-05-26T01:20:29.704Z,97685
2018-05-26T01:23:10.013Z,97691
2018-05-26T01:25:51.271Z,97692
2018-05-26T01:28:31.649Z,97680
2018-05-26T01:31:13.249Z,97686
2018-05-26T01:33:53.706Z,97686
2018-05-26T01:36:35.409Z,97684
2018-05-26T01:39:15.859Z,97684
2018-05-26T01:41:56.381Z,97678
2018-05-26T01:44:36.793Z,97677
2018-05-26T01:47:17.199Z,97675
2018-05-26T01:49:57.834Z,97681
2018-05-26T01:52:38.541Z,97671
2018-05-26T01:55:19.012Z,97676
2018-05-26T01:57:59.433Z,97674
2018-05-26T02:04:02.148Z,97682
2018-05-26T02:06:42.529Z,97675
2018-05-26T02:09:24.131Z,97677
2018-05-26T02:12:04.449Z,97685
2018-05-26T02:14:44.765Z,97673
2018-05-26T02:17:25.520Z,97684
2018-05-26T02:20:06.812Z,97685
2018-05-26T02:22:48.125Z,97693
2018-05-26T02:25:28.605Z,97702
2018-05-26T02:28:09.539Z,97702
2018-05-26T02:30:50.800Z,97701
2018-05-26T02:33:31.639Z,97701
2018-05-26T02:36:11.962Z,97700
2018-05-26T02:38:52.626Z,97697
2018-05-26T02:41:33.005Z,97705
2018-05-26T02:44:14.364Z,97717
2018-05-26T02:46:55.240Z,97715
2018-05-26T02:49:36.786Z,97728
2018-05-26T02:52:18.390Z,97724
2018-05-26T02:54:59.608Z,97721
2018-05-26T02:57:40.951Z,97728
2018-05-26T03:00:22.393Z,97729
2018-05-26T03:03:02.716Z,97730
2018-05-26T03:05:48.559Z,97733
2018-05-26T03:08:35.247Z,97726
2018-05-26T03:11:21.292Z,97721
2018-05-26T03:14:07.835Z,97722
2018-05-26T03:16:53.499Z,97724
2018-05-26T03:19:33.856Z,97722
2018-05-26T03:22:14.168Z,97729
2018-05-26T03:24:55.356Z,97721
2018-05-26T03:27:35.542Z,97740
2018-05-26T03:30:17.005Z,97736
2018-05-26T03:32:57.399Z,97733
2018-05-26T03:35:37.851Z,97738
2018-05-26T03:38:18.321Z,97734
2018-05-26T03:40:59.349Z,97746
2018-05-26T03:43:39.661Z,97751
2018-05-26T03:46:20.930Z,97750
2018-05-26T03:49:01.243Z,97765
2018-05-26T03:51:41.597Z,97759
2018-05-26T03:57:37.265Z,97767
2018-05-26T04:00:17.821Z,97774
2018-05-26T04:02:58.222Z,97777
2018-05-26T04:05:40.077Z,97777
2018-05-26T04:08:21.942Z,97778
2018-05-26T04:11:02.484Z,97762
2018-05-26T04:13:42.819Z,97781
2018-05-26T04:16:24.189Z,97765
2018-05-26T04:19:04.666Z,97787
2018-05-26T04:21:44.985Z,97788
2018-05-26T04:24:25.711Z,97788
2018-05-26T04:27:08.739Z,97782
2018-05-26T04:29:50.918Z,97779
2018-05-26T04:32:31.236Z,97779
2018-05-26T04:35:11.613Z,97779
2018-05-26T04:37:52.845Z,97773
2018-05-26T04:40:33.173Z,97774
2018-05-26T04:43:13.511Z,97776
2018-05-26T04:45:54.581Z,97780
2018-05-26T04:48:34.915Z,97785
2018-05-26T04:51:15.330Z,97776
2018-05-26T04:53:55.718Z,97783
2018-05-26T04:56:35.911Z,97779
2018-05-26T04:59:16.264Z,97790
2018-05-26T05:01:57.371Z,97789
2018-05-26T05:04:37.815Z,97796
2018-05-26T05:07:18.213Z,97795
2018-05-26T05:09:58.629Z,97798
2018-05-26T05:12:39.118Z,97794
2018-05-26T05:15:19.541Z,97797
2018-05-26T05:18:03.390Z,97804
2018-05-26T05:20:43.668Z,97808
2018-05-26T05:23:24.555Z,97799
2018-05-26T05:26:04.782Z,97809
2018-05-26T05:28:45.182Z,97806
2018-05-26T05:31:25.569Z,97803
2018-05-26T05:34:06.864Z,97801
2018-05-26T05:36:47.372Z,97805
2018-05-26T05:39:27.882Z,97807
2018-05-26T05:42:08.410Z,97816
2018-05-26T05:44:48.809Z,97812
2018-05-26T05:47:31.067Z,97804
2018-05-26T05:50:11.377Z,97815
2018-05-26T05:52:52.779Z,97812
2018-05-26T05:55:33.112Z,97818
2018-05-26T05:58:13.364Z,97815
2018-05-26T06:00:54.417Z,97818
2018-05-26T06:03:34.865Z,97812
2018-05-26T06:06:16.665Z,97825
2018-05-26T06:08:56.989Z,97813
2018-05-26T06:11:37.312Z,97826
2018-05-26T06:14:21.848Z,97836
2018-05-26T06:17:02.690Z,97824
2018-05-26T06:19:43.297Z,97826
2018-05-26T06:22:24.965Z,97815
2018-05-26T06:25:05.262Z,97815
2018-05-26T06:27:45.661Z,97820
2018-05-26T06:30:26.009Z,97814
2018-05-26T06:33:06.456Z,97828
2018-05-26T06:35:47.791Z,97820
2018-05-26T06:38:28.212Z,97819
2018-05-26T06:41:09.928Z,97818
2018-05-26T06:43:51.664Z,97825
2018-05-26T06:46:32.146Z,97823
2018-05-26T06:49:12.650Z,97826
2018-05-26T06:51:55.029Z,97826
2018-05-26T06:54:35.320Z,97826
2018-05-26T06:57:15.771Z,97820
2018-05-26T06:59:56.111Z,97832
2018-05-26T07:02:37.480Z,97831
2018-05-26T07:05:17.825Z,97823
2018-05-26T07:07:59.242Z,97828
2018-05-26T07:10:39.716Z,97826
2018-05-26T07:13:20.033Z,97831
2018-05-26T07:16:00.436Z,97827
2018-05-26T07:18:40.888Z,97833
2018-05-26T07:21:22.437Z,97834
2018-05-26T07:24:03.074Z,97839
2018-05-26T07:26:43.443Z,97834
2018-05-26T07:29:24.804Z,97836
2018-05-26T07:32:06.090Z,97843
2018-05-26T07:34:46.341Z,97839
2018-05-26T07:37:26.725Z,97844
2018-05-26T07:40:07.169Z,97848
2018-05-26T07:42:47.527Z,97842
2018-05-26T07:45:27.993Z,97844
2018-05-26T07:48:08.656Z,97844
2018-05-26T07:50:49.040Z,97843
2018-05-26T07:53:29.950Z,97847
2018-05-26T07:56:10.285Z,97842
2018-05-26T07:58:50.821Z,97842
2018-05-26T08:01:31.173Z,97849
2018-05-26T08:04:11.528Z,97850
2018-05-26T08:06:52.437Z,97849
2018-05-26T08:09:32.782Z,97851
2018-05-26T08:12:13.065Z,97851
2018-05-26T08:14:54.920Z,97851
2018-05-26T08:17:36.129Z,97852
2018-05-26T08:20:16.741Z,97855
2018-05-26T08:22:57.142Z,97850
2018-05-26T08:25:37.492Z,97858
2018-05-26T08:28:17.868Z,97859
2018-05-26T08:30:58.230Z,97858
2018-05-26T08:33:38.546Z,97862
2018-05-26T08:36:19.498Z,97862
2018-05-26T08:39:00.604Z,97865
2018-05-26T08:41:41.596Z,97867
2018-05-26T08:44:22.948Z,97871
2018-05-26T08:47:04.477Z,97877
2018-05-26T08:49:44.920Z,97873
2018-05-26T08:52:25.872Z,97870
2018-05-26T08:55:07.228Z,97873
2018-05-26T08:57:47.555Z,97882
2018-05-26T09:00:27.841Z,97883
2018-05-26T09:03:08.052Z,97891
2018-05-26T09:05:48.569Z,97894
2018-05-26T09:08:28.914Z,97889
2018-05-26T09:11:09.278Z,97892
2018-05-26T09:13:49.574Z,97886
2018-05-26T09:16:30.765Z,97895
2018-05-26T09:19:11.404Z,97890
2018-05-26T09:21:52.391Z,97889
2018-05-26T09:24:32.793Z,97886
2018-05-26T09:27:13.135Z,97881
2018-05-26T09:29:53.988Z,97884
2018-05-26T09:32:34.233Z,97891
2018-05-26T09:35:14.532Z,97888
2018-05-26T09:37:55.969Z,97883
2018-05-26T09:40:36.308Z,97882
2018-05-26T09:43:16.776Z,97887
2018-05-26T09:45:58.305Z,97884
2018-05-26T09:48:38.644Z,97888
2018-05-26T09:51:19.014Z,97881
2018-05-26T09:53:59.444Z,97883
2018-05-26T09:56:39.973Z,97891
2018-05-26T09:59:20.311Z,97883
2018-05-26T10:02:01.313Z,97890
2018-05-26T10:04:41.762Z,97884
2018-05-26T10:07:23.700Z,97892
2018-05-26T10:10:05.577Z,97892
2018-05-26T10:12:45.950Z,97886
2018-05-26T10:15:26.980Z,97885
2018-05-26T10:18:07.537Z,97883
2018-05-26T10:20:48.083Z,97888
2018-05-26T10:23:28.620Z,97886
2018-05-26T10:26:11.433Z,97890
2018-05-26T10:28:52.505Z,97887
2018-05-26T10:31:32.812Z,97883
2018-05-26T10:34:13.268Z,97888
2018-05-26T10:36:54.201Z,97894
2018-05-26T10:39:36.544Z,97889
2018-05-26T10:42:16.905Z,97882
2018-05-26T10:44:58.190Z,97883
2018-05-26T10:47:39.232Z,97880
2018-05-26T10:50:20.060Z,97877
2018-05-26T10:53:01.053Z,97873
2018-05-26T10:55:41.502Z,97872
2018-05-26T10:58:22.325Z,97870
2018-05-26T11:01:03.438Z,97869
2018-05-26T11:03:44.641Z,97865
2018-05-26T11:06:26.587Z,97868
2018-05-26T11:09:07.027Z,97875
2018-05-26T11:11:47.447Z,97876
2018-05-26T11:14:28.744Z,97871
2018-05-26T11:17:09.159Z,97871
2018-05-26T11:19:50.296Z,97870
2018-05-26T11:22:31.472Z,97872
2018-05-26T11:25:11.953Z,97872
2018-05-26T11:27:53.338Z,97866
2018-05-26T11:30:33.910Z,97859
2018-05-26T11:33:14.261Z,97867
2018-05-26T11:35:55.419Z,97860
2018-05-26T11:38:36.790Z,97871
2018-05-26T11:41:17.196Z,97865
2018-05-26T11:43:58.875Z,97872
2018-05-26T11:46:40.416Z,97869
2018-05-26T11:49:20.926Z,97862
2018-05-26T11:52:03.233Z,97858
2018-05-26T11:54:44.238Z,97858
2018-05-26T11:57:24.581Z,97852
2018-05-26T12:00:04.953Z,97852
2018-05-26T12:02:45.275Z,97849
2018-05-26T12:05:26.223Z,97847
2018-05-26T12:08:06.661Z,97852
2018-05-26T12:10:48.037Z,97844
2018-05-26T12:13:28.421Z,97842
2018-05-26T12:16:08.836Z,97827
2018-05-26T12:18:49.750Z,97827
2018-05-26T12:21:30.815Z,97825
2018-05-26T12:24:11.204Z,97821
2018-05-26T12:26:51.578Z,97824
2018-05-26T12:29:31.954Z,97818
2018-05-26T12:32:12.292Z,97819
2018-05-26T12:34:54.423Z,97824
2018-05-26T12:37:34.864Z,97819
2018-05-26T12:40:15.216Z,97815
2018-05-26T12:42:55.632Z,97814
2018-05-26T12:45:35.960Z,97817
2018-05-26T12:48:16.834Z,97818
2018-05-26T12:50:57.431Z,97809
2018-05-26T12:53:38.681Z,97811
2018-05-26T12:56:19.925Z,97815
2018-05-26T12:59:00.495Z,97819
2018-05-26T13:01:40.883Z,97825
2018-05-26T13:04:21.227Z,97817
2018-05-26T13:07:03.650Z,97825
2018-05-26T13:09:44.000Z,97824
2018-05-26T13:12:24.786Z,97822
2018-05-26T13:15:06.093Z,97820
2018-05-26T13:17:47.354Z,97822
2018-05-26T13:20:28.609Z,97829
2018-05-26T13:23:09.166Z,97820
2018-05-26T13:25:49.517Z,97822
2018-05-26T13:28:29.879Z,97822
2018-05-26T13:31:10.200Z,97816
2018-05-26T13:33:50.661Z,97815
2018-05-26T13:36:33.756Z,97814
2018-05-26T13:39:14.009Z,97806
2018-05-26T13:41:56.795Z,97801
2018-05-26T13:44:37.204Z,97805
2018-05-26T13:47:17.425Z,97802
2018-05-26T13:49:57.763Z,97791
2018-05-26T13:52:38.707Z,97799
2018-05-26T13:55:19.925Z,97801
2018-05-26T13:58:00.294Z,97795
2018-05-26T14:00:40.601Z,97796
2018-05-26T14:03:21.018Z,97783
2018-05-26T14:06:02.065Z,97783
2018-05-26T14:08:42.557Z,97785
2018-05-26T14:11:24.608Z,97780
2018-05-26T14:14:04.953Z,97776
2018-05-26T14:16:47.809Z,97772
2018-05-26T14:19:28.533Z,97768
2018-05-26T14:22:08.931Z,97754
2018-05-26T14:24:50.351Z,97761
2018-05-26T14:27:31.455Z,97753
2018-05-26T14:30:12.820Z,97755
2018-05-26T14:32:54.684Z,97753
2018-05-26T14:35:35.028Z,97756
2018-05-26T14:38:16.491Z,97753
2018-05-26T14:40:57.692Z,97741
2018-05-26T14:43:38.128Z,97740
2018-05-26T14:46:18.639Z,97736
2018-05-26T14:48:58.972Z,97750
2018-05-26T14:51:39.435Z,97742
2018-05-26T14:54:20.560Z,97743
2018-05-26T14:57:00.936Z,97737
2018-05-26T14:59:41.433Z,97732
2018-05-26T15:02:21.722Z,97742
2018-05-26T15:05:02.501Z,97740
2018-05-26T15:07:42.941Z,97728
2018-05-26T15:10:23.718Z,97725
2018-05-26T15:13:04.136Z,97722
2018-05-26T15:15:44.392Z,97731
2018-05-26T15:18:25.568Z,97728
2018-05-26T15:21:05.852Z,97722
2018-05-26T15:23:47.980Z,97710
2018-05-26T15:26:29.208Z,97714
2018-05-26T15:29:09.656Z,97706
2018-05-26T15:31:50.200Z,97719
2018-05-26T15:34:31.118Z,97726
2018-05-26T15:37:12.056Z,97724
2018-05-26T15:39:52.538Z,97733
2018-05-26T15:42:32.915Z,97727
2018-05-26T15:45:13.291Z,97725
2018-05-26T15:47:54.349Z,97734
2018-05-26T15:50:39.248Z,97724
2018-05-26T15:53:19.568Z,97730
2018-05-26T15:56:05.632Z,97734
2018-05-26T15:58:46.113Z,97730
2018-05-26T16:01:29.231Z,97732
2018-05-26T16:04:09.715Z,97738
2018-05-26T16:06:50.139Z,97737
2018-05-26T16:09:30.459Z,97740
2018-05-26T16:12:16.703Z,97739
2018-05-26T16:14:57.918Z,97746
2018-05-26T16:17:38.206Z,97745
2018-05-26T16:20:18.928Z,97745
2018-05-26T16:22:59.443Z,97745
2018-05-26T16:25:40.296Z,97749
2018-05-26T16:28:20.626Z,97741
2018-05-26T16:31:01.860Z,97744
2018-05-26T16:33:42.358Z,97743
2018-05-26T16:36:22.843Z,97742
2018-05-26T16:39:03.205Z,97747
2018-05-26T16:41:43.537Z,97750
2018-05-26T16:44:24.717Z,97750
2018-05-26T16:47:05.513Z,97750
2018-05-26T16:49:45.884Z,97749
2018-05-26T16:52:26.782Z,97746
2018-05-26T16:55:07.150Z,97753
2018-05-26T16:57:47.457Z,97749
2018-05-26T17:00:28.435Z,97747
2018-05-26T17:03:08.854Z,97759
2018-05-26T17:05:49.055Z,97750
2018-05-26T17:08:29.394Z,97755
2018-05-26T17:11:09.849Z,97755
2018-05-26T17:13:50.143Z,97761
2018-05-26T17:16:30.647Z,97754
2018-05-26T17:19:11.107Z,97758
2018-05-26T17:21:51.585Z,97775
2018-05-26T17:24:33.704Z,97765
2018-05-26T17:27:14.037Z,97755
2018-05-26T17:29:55.107Z,97770
2018-05-26T17:32:35.862Z,97770
2018-05-26T17:35:16.253Z,97776
2018-05-26T17:37:57.880Z,97781
2018-05-26T17:40:39.097Z,97782
2018-05-26T17:43:19.434Z,97782
2018-05-26T17:45:59.725Z,97779
2018-05-26T17:48:40.210Z,97773
2018-05-26T17:51:20.549Z,97774
2018-05-26T17:54:00.937Z,97769
2018-05-26T17:56:41.351Z,97771
2018-05-26T17:59:21.797Z,97771
2018-05-26T18:02:02.723Z,97775
2018-05-26T18:04:43.096Z,97773
2018-05-26T18:07:24.147Z,97771
2018-05-26T18:10:04.473Z,97776
2018-05-26T18:12:44.847Z,97779
2018-05-26T18:15:25.818Z,97771
2018-05-26T18:18:06.141Z,97783
2018-05-26T18:20:47.158Z,97780
2018-05-26T18:23:28.202Z,97790
2018-05-26T18:26:08.448Z,97785
2018-05-26T18:28:48.913Z,97795
2018-05-26T18:31:29.462Z,97797
2018-05-26T18:34:10.571Z,97802
2018-05-26T18:36:50.922Z,97797
2018-05-26T18:39:31.225Z,97799
2018-05-26T18:42:11.580Z,97803
2018-05-26T18:44:51.817Z,97807
2018-05-26T18:47:32.961Z,97812
2018-05-26T18:50:13.136Z,97814
2018-05-26T18:52:54.337Z,97830
2018-05-26T18:55:35.380Z,97833
2018-05-26T18:58:15.825Z,97836
2018-05-26T19:00:56.147Z,97833
2018-05-26T19:03:36.475Z,97834
2018-05-26T19:06:16.838Z,97841
2018-05-26T19:08:57.633Z,97846
2018-05-26T19:11:38.084Z,97848
2018-05-26T19:14:18.441Z,97850
2018-05-26T19:16:58.933Z,97847
2018-05-26T19:19:39.281Z,97842
2018-05-26T19:22:19.600Z,97844
2018-05-26T19:24:59.973Z,97839
2018-05-26T19:27:40.419Z,97840
2018-05-26T19:30:20.929Z,97842
2018-05-26T19:33:01.245Z,97837
2018-05-26T19:35:41.564Z,97834
2018-05-26T19:38:21.880Z,97836
2018-05-26T19:41:03.236Z,97836
2018-05-26T19:43:43.549Z,97843
2018-05-26T19:46:24.589Z,97843
2018-05-26T19:49:04.900Z,97835
2018-05-26T19:54:11.488Z,97837
2018-05-26T19:56:51.901Z,97826
2018-05-26T19:59:34.025Z,97830
2018-05-26T20:02:14.263Z,97838
2018-05-26T20:04:55.556Z,97835
2018-05-26T20:07:35.730Z,97833
2018-05-26T20:10:16.819Z,97831
2018-05-26T20:12:57.749Z,97834
2018-05-26T20:15:38.974Z,97825
2018-05-26T20:18:19.275Z,97831
2018-05-26T20:20:59.618Z,97827
2018-05-26T20:23:40.027Z,97831
2018-05-26T20:26:20.372Z,97830
2018-05-26T20:29:00.842Z,97831
2018-05-26T20:31:42.234Z,97834
2018-05-26T20:34:23.333Z,97837
2018-05-26T20:37:03.733Z,97845
2018-05-26T20:39:44.053Z,97833
2018-05-26T20:42:25.167Z,97833
2018-05-26T20:45:06.125Z,97833
2018-05-26T20:47:46.497Z,97835
2018-05-26T20:50:27.012Z,97826
2018-05-26T20:53:07.416Z,97826
2018-05-26T20:55:47.837Z,97828
2018-05-26T20:58:28.899Z,97825
2018-05-26T21:01:09.903Z,97816
2018-05-26T21:03:50.310Z,97824
2018-05-26T21:06:30.972Z,97820
2018-05-26T21:09:11.304Z,97818
2018-05-26T21:11:53.282Z,97818
2018-05-26T21:14:35.450Z,97819
2018-05-26T21:17:16.006Z,97820
2018-05-26T21:19:56.526Z,97819
2018-05-26T21:22:36.837Z,97817
2018-05-26T21:25:17.070Z,97827
2018-05-26T21:27:59.149Z,97822
2018-05-26T21:30:39.602Z,97816
2018-05-26T21:33:19.945Z,97818
2018-05-26T21:36:00.286Z,97822
2018-05-26T21:38:40.588Z,97822
2018-05-26T21:41:21.145Z,97820
2018-05-26T21:44:01.477Z,97821
2018-05-26T21:46:41.934Z,97819
2018-05-26T21:49:22.241Z,97826
2018-05-26T21:52:03.332Z,97830
2018-05-26T21:54:43.730Z,97834
2018-05-26T21:57:24.843Z,97831
2018-05-26T22:00:05.173Z,97835
2018-05-26T22:02:47.151Z,97826
2018-05-26T22:05:28.924Z,97829
2018-05-26T22:08:09.265Z,97831
2018-05-26T22:10:49.591Z,97836
2018-05-26T22:13:29.949Z,97825
2018-05-26T22:16:10.361Z,97822
2018-05-26T22:18:50.661Z,97817
2018-05-26T22:21:31.013Z,97818
2018-05-26T22:24:11.447Z,97823
2018-05-26T22:27:05.231Z,97823
2018-05-26T22:29:45.575Z,97823
2018-05-26T22:32:26.339Z,97817
2018-05-26T22:35:32.084Z,97816
2018-05-26T22:38:12.309Z,97815
2018-05-26T22:40:52.639Z,97808
2018-05-26T22:43:33.444Z,97806
2018-05-26T22:46:13.787Z,97813
2018-05-26T22:48:55.538Z,97815
2018-05-26T22:51:36.576Z,97816
2018-05-26T22:54:16.890Z,97819
2018-05-26T22:56:57.707Z,97809
2018-05-26T22:59:38.077Z,97807
2018-05-26T23:02:18.410Z,97812
2018-05-26T23:04:59.301Z,97811
2018-05-26T23:07:39.675Z,97816
2018-05-26T23:10:20.012Z,97816
2018-05-26T23:13:00.403Z,97813
2018-05-26T23:15:40.761Z,97812
2018-05-26T23:18:21.841Z,97810
2018-05-26T23:21:02.131Z,97819
2018-05-26T23:23:42.516Z,97815
2018-05-26T23:26:23.013Z,97813
2018-05-26T23:29:03.691Z,97808
2018-05-26T23:31:44.004Z,97814
2018-05-26T23:34:24.882Z,97804
2018-05-26T23:37:05.214Z,97806
2018-05-26T23:39:45.585Z,97800
2018-05-26T23:42:26.681Z,97799
2018-05-26T23:45:07.160Z,97795
2018-05-26T23:47:47.513Z,97798
2018-05-26T23:50:29.664Z,97790
2018-05-26T23:53:11.941Z,97794
2018-05-26T23:55:52.385Z,97795
2018-05-26T23:58:33.641Z,97798
